Time;durP1;ratioP1;P1;durP2;ratioP2;P2;SDS_P1;SDS_P2;PMS_P1;PMS_P2;Temp;Humidity;BMP_temperature;BMP_pressure;BME280_temperature;BME280_humidity;BME280_pressure;Samples;Min_cycle;Max_cycle;Signal;HPM_P1;HPM_P2
2023/04/15 00:01:09;;;;;;;0.08;0.08;;;5.40;99.90;;;;;;5092691;28;20259;-61
2023/04/15 00:03:34;;;;;;;0.17;0.17;;;5.30;99.90;;;;;;5092804;28;20500;-61
2023/04/15 00:06:00;;;;;;;0.00;0.00;;;5.30;99.90;;;;;;5092520;28;20183;-61
2023/04/15 00:08:26;;;;;;;0.00;0.00;;;5.20;99.90;;;;;;5092747;28;20223;-61
2023/04/15 00:10:52;;;;;;;0.47;0.47;;;5.20;99.90;;;;;;5092634;28;20232;-61
2023/04/15 00:13:17;;;;;;;0.40;0.40;;;5.10;99.90;;;;;;5092521;28;20176;-60
2023/04/15 00:15:43;;;;;;;0.40;0.40;;;5.10;99.90;;;;;;5092113;28;20180;-60
2023/04/15 00:18:09;;;;;;;0.40;0.40;;;5.10;99.90;;;;;;5092254;28;20184;-60
2023/04/15 00:20:35;;;;;;;0.00;0.00;;;5.10;99.90;;;;;;5092522;28;20191;-61
2023/04/15 00:23:02;;;;;;;0.10;0.10;;;5.10;99.90;;;;;;5092761;28;20221;-60
2023/04/15 00:25:28;;;;;;;0.00;0.00;;;5.00;99.90;;;;;;5092889;28;20712;-62
2023/04/15 00:27:53;;;;;;;0.00;0.00;;;5.00;99.90;;;;;;5092277;28;20231;-62
2023/04/15 00:30:19;;;;;;;0.00;0.00;;;5.00;99.90;;;;;;5072689;28;20284;-62
2023/04/15 00:32:45;;;;;;;0.00;0.00;;;5.00;99.90;;;;;;5072273;28;20187;-62
2023/04/15 00:35:11;;;;;;;0.00;0.00;;;5.00;99.90;;;;;;5072297;28;20177;-62
2023/04/15 00:37:36;;;;;;;0.00;0.00;;;5.00;99.90;;;;;;5078449;28;20176;-62
2023/04/15 00:40:05;;;;;;;0.00;0.00;;;5.00;99.90;;;;;;5092448;28;20180;-62
2023/04/15 00:42:30;;;;;;;0.00;0.00;;;5.00;99.90;;;;;;5092126;28;20226;-62
2023/04/15 00:44:56;;;;;;;0.00;0.00;;;4.90;99.90;;;;;;5092096;28;20172;-62
2023/04/15 00:47:22;;;;;;;0.00;0.00;;;4.90;99.90;;;;;;5091867;28;20222;-61
2023/04/15 00:49:47;;;;;;;0.00;0.00;;;4.90;99.90;;;;;;5092357;28;20179;-62
2023/04/15 00:52:13;;;;;;;0.00;0.00;;;4.80;99.90;;;;;;5092232;28;20172;-62
2023/04/15 00:54:39;;;;;;;0.00;0.00;;;4.80;99.90;;;;;;5074043;28;20184;-61
2023/04/15 00:57:06;;;;;;;0.40;0.40;;;4.80;99.90;;;;;;5092087;28;20233;-62
2023/04/15 00:59:33;;;;;;;0.00;0.00;;;4.80;99.90;;;;;;5092242;28;20184;-61
2023/04/15 01:01:59;;;;;;;0.00;0.00;;;4.80;99.90;;;;;;5092089;28;20168;-62
2023/04/15 01:04:24;;;;;;;0.10;0.10;;;4.80;99.90;;;;;;5091702;28;20221;-61
2023/04/15 01:06:50;;;;;;;0.00;0.00;;;4.80;99.90;;;;;;5091998;28;20267;-62
2023/04/15 01:09:16;;;;;;;0.08;0.08;;;4.70;99.90;;;;;;5091831;28;20220;-62
2023/04/15 01:11:43;;;;;;;0.00;0.00;;;4.70;99.90;;;;;;5073425;28;20176;-62
2023/04/15 01:14:09;;;;;;;0.00;0.00;;;4.70;99.90;;;;;;5091535;28;20260;-62
2023/04/15 01:16:38;;;;;;;0.00;0.00;;;4.70;99.90;;;;;;5073455;28;20176;-62
2023/04/15 01:19:07;;;;;;;0.00;0.00;;;4.70;99.90;;;;;;5091060;28;20279;-62
2023/04/15 01:21:36;;;;;;;0.00;0.00;;;4.70;99.90;;;;;;5091287;28;20253;-62
2023/04/15 01:24:07;;;;;;;0.00;0.00;;;4.70;99.90;;;;;;5091050;28;20192;-62
2023/04/15 01:26:33;;;;;;;0.00;0.00;;;4.60;99.90;;;;;;5090584;28;20191;-62
2023/04/15 01:28:58;;;;;;;1.55;0.57;;;4.60;99.90;;;;;;5090423;28;20223;-62
2023/04/15 01:31:24;;;;;;;0.30;0.30;;;4.60;99.90;;;;;;5090794;28;20172;-62
2023/04/15 01:33:50;;;;;;;0.00;0.00;;;4.50;99.90;;;;;;5090940;28;20267;-62
2023/04/15 01:36:15;;;;;;;0.00;0.00;;;4.50;99.90;;;;;;5090978;28;20183;-62
2023/04/15 01:38:41;;;;;;;0.00;0.00;;;4.50;99.90;;;;;;5080542;28;20203;-61
2023/04/15 01:41:07;;;;;;;0.00;0.00;;;4.50;99.90;;;;;;5088478;28;20654;-62
2023/04/15 01:43:33;;;;;;;0.00;0.00;;;4.40;99.90;;;;;;5090594;28;20274;-62
2023/04/15 01:45:59;;;;;;;0.00;0.00;;;4.40;99.90;;;;;;5089561;28;20190;-62
2023/04/15 01:48:25;;;;;;;0.10;0.10;;;4.40;99.90;;;;;;5089172;28;20215;-62
2023/04/15 01:50:53;;;;;;;0.00;0.00;;;4.30;99.90;;;;;;5090445;28;20176;-62
2023/04/15 01:53:19;;;;;;;0.35;0.35;;;4.30;99.90;;;;;;5090925;28;20275;-62
2023/04/15 01:55:45;;;;;;;0.00;0.00;;;4.30;99.90;;;;;;5079310;28;20171;-62
2023/04/15 01:58:10;;;;;;;0.00;0.00;;;4.30;99.90;;;;;;5090249;28;20650;-62
2023/04/15 02:00:36;;;;;;;0.00;0.00;;;4.30;99.90;;;;;;5090458;28;20184;-62
2023/04/15 02:03:01;;;;;;;0.00;0.00;;;4.30;99.90;;;;;;5090853;28;20223;-62
2023/04/15 02:05:27;;;;;;;0.43;0.43;;;4.30;99.90;;;;;;5090762;28;20710;-62
2023/04/15 02:07:53;;;;;;;0.00;0.00;;;4.30;99.90;;;;;;5090345;28;20208;-62
2023/04/15 02:10:18;;;;;;;0.00;0.00;;;4.30;99.90;;;;;;5090874;28;20274;-62
2023/04/15 02:12:44;;;;;;;0.00;0.00;;;4.30;99.90;;;;;;5090700;28;20164;-62
2023/04/15 02:15:10;;;;;;;0.22;0.22;;;4.30;99.90;;;;;;5090647;28;20190;-63
2023/04/15 02:17:36;;;;;;;0.00;0.00;;;4.30;99.90;;;;;;5090926;28;20179;-63
2023/04/15 02:20:04;;;;;;;0.00;0.00;;;4.20;99.90;;;;;;5090512;28;20211;-62
2023/04/15 02:22:30;;;;;;;0.00;0.00;;;4.20;99.90;;;;;;5090512;28;20180;-62
2023/04/15 02:24:56;;;;;;;0.00;0.00;;;4.20;99.90;;;;;;5090781;28;20160;-62
2023/04/15 02:27:21;;;;;;;0.00;0.00;;;4.20;99.90;;;;;;5089888;28;20755;-60
2023/04/15 02:29:47;;;;;;;0.00;0.00;;;4.10;99.90;;;;;;5075317;28;20200;-60
2023/04/15 02:32:12;;;;;;;0.00;0.00;;;4.10;99.90;;;;;;5072208;28;20183;-60
2023/04/15 02:34:42;;;;;;;0.00;0.00;;;4.00;99.90;;;;;;5090769;28;20183;-60
2023/04/15 02:37:08;;;;;;;0.00;0.00;;;4.00;99.90;;;;;;5090378;28;20200;-61
2023/04/15 02:39:34;;;;;;;0.10;0.10;;;4.00;99.90;;;;;;5090427;28;20184;-61
2023/04/15 02:42:00;;;;;;;0.00;0.00;;;3.90;99.90;;;;;;5090602;28;20666;-61
2023/04/15 02:44:26;;;;;;;0.10;0.10;;;3.90;99.90;;;;;;5090335;28;20241;-61
2023/04/15 02:46:53;;;;;;;0.10;0.10;;;3.90;99.90;;;;;;5090105;28;20222;-61
2023/04/15 02:49:19;;;;;;;0.15;0.15;;;3.90;99.90;;;;;;5090425;28;20215;-61
2023/04/15 02:51:48;;;;;;;0.00;0.00;;;3.90;99.90;;;;;;5089953;28;20219;-61
2023/04/15 02:54:24;;;;;;;0.00;0.00;;;3.90;99.90;;;;;;5089935;28;20184;-61
2023/04/15 02:56:49;;;;;;;0.00;0.00;;;3.90;99.90;;;;;;5089975;28;20188;-61
2023/04/15 02:59:15;;;;;;;0.22;0.22;;;3.90;99.90;;;;;;5090055;28;21145;-61
2023/04/15 03:01:41;;;;;;;0.03;0.03;;;3.80;99.90;;;;;;5090385;28;20187;-61
2023/04/15 03:04:07;;;;;;;0.00;0.00;;;3.80;99.90;;;;;;5089617;28;20631;-61
2023/04/15 03:06:33;;;;;;;0.00;0.00;;;3.80;99.90;;;;;;5089848;28;20185;-61
2023/04/15 03:08:59;;;;;;;0.00;0.00;;;3.80;99.90;;;;;;5090427;28;20239;-61
2023/04/15 03:11:26;;;;;;;0.00;0.00;;;3.80;99.90;;;;;;5093738;28;20274;-61
2023/04/15 03:13:51;;;;;;;0.00;0.00;;;3.80;99.90;;;;;;5093477;28;20645;-61
2023/04/15 03:16:17;;;;;;;0.00;0.00;;;3.80;99.90;;;;;;5093883;28;20275;-61
2023/04/15 03:18:43;;;;;;;0.08;0.08;;;3.80;99.90;;;;;;5093786;28;20165;-61
2023/04/15 03:21:08;;;;;;;0.00;0.00;;;3.80;99.90;;;;;;5093815;28;20580;-61
2023/04/15 03:23:34;;;;;;;0.05;0.05;;;3.80;99.90;;;;;;5093388;28;20263;-61
2023/04/15 03:26:03;;;;;;;0.00;0.00;;;3.90;99.90;;;;;;5093463;28;20260;-61
2023/04/15 03:28:29;;;;;;;0.00;0.00;;;3.90;99.90;;;;;;5088761;28;20275;-61
2023/04/15 03:30:55;;;;;;;0.00;0.00;;;3.90;99.90;;;;;;5093054;28;20229;-60
2023/04/15 03:33:20;;;;;;;0.00;0.00;;;3.90;99.90;;;;;;5093101;28;20180;-60
2023/04/15 03:35:46;;;;;;;0.00;0.00;;;3.80;99.90;;;;;;5093337;28;20164;-61
2023/04/15 03:38:11;;;;;;;0.00;0.00;;;3.90;99.90;;;;;;5092781;28;20572;-61
2023/04/15 03:40:39;;;;;;;0.00;0.00;;;3.90;99.90;;;;;;5093384;28;20171;-61
2023/04/15 03:43:05;;;;;;;0.00;0.00;;;3.90;99.90;;;;;;5093089;28;20207;-61
2023/04/15 03:45:31;;;;;;;0.15;0.15;;;3.80;99.90;;;;;;5093098;28;20646;-60
2023/04/15 03:47:56;;;;;;;0.00;0.00;;;3.80;99.90;;;;;;5075318;28;20227;-61
2023/04/15 03:50:22;;;;;;;0.05;0.05;;;3.80;99.90;;;;;;5092879;28;20176;-61
2023/04/15 03:52:47;;;;;;;0.00;0.00;;;3.80;99.90;;;;;;5093291;28;20180;-61
2023/04/15 03:55:14;;;;;;;0.00;0.00;;;3.80;99.90;;;;;;5092889;28;20669;-60
2023/04/15 03:57:40;;;;;;;0.00;0.00;;;3.80;99.90;;;;;;5074578;28;20214;-60
2023/04/15 04:00:08;;;;;;;0.00;0.00;;;3.80;99.90;;;;;;5093010;28;20172;-61
2023/04/15 04:02:33;;;;;;;0.00;0.00;;;3.80;99.90;;;;;;5092746;28;20177;-60
2023/04/15 04:04:59;;;;;;;0.00;0.00;;;3.80;99.90;;;;;;5092730;28;20762;-60
2023/04/15 04:07:25;;;;;;;0.00;0.00;;;3.80;99.90;;;;;;5092778;28;20168;-61
2023/04/15 04:09:50;;;;;;;0.00;0.00;;;3.80;99.90;;;;;;5074402;28;20186;-60
2023/04/15 04:12:16;;;;;;;0.00;0.00;;;3.80;99.90;;;;;;5092451;28;20172;-61
2023/04/15 04:14:41;;;;;;;0.00;0.00;;;3.80;99.90;;;;;;5092751;28;20172;-60
2023/04/15 04:17:07;;;;;;;0.00;0.00;;;3.70;99.90;;;;;;5092301;28;20187;-61
2023/04/15 04:19:33;;;;;;;0.00;0.00;;;3.70;99.90;;;;;;5090758;28;20200;-60
2023/04/15 04:21:59;;;;;;;0.00;0.00;;;3.70;99.90;;;;;;5091685;28;20226;-60
2023/04/15 04:24:25;;;;;;;0.00;0.00;;;3.60;99.90;;;;;;5091568;28;20642;-60
2023/04/15 04:26:50;;;;;;;0.00;0.00;;;3.50;99.90;;;;;;5092086;28;20224;-60
2023/04/15 04:29:16;;;;;;;0.00;0.00;;;3.50;99.90;;;;;;5069902;28;20216;-61
2023/04/15 04:31:41;;;;;;;0.00;0.00;;;3.40;99.90;;;;;;5092188;28;20191;-61
2023/04/15 04:34:07;;;;;;;0.00;0.00;;;3.40;99.90;;;;;;5092406;28;20200;-61
2023/04/15 04:36:32;;;;;;;0.00;0.00;;;3.40;99.90;;;;;;5091976;28;20184;-61
2023/04/15 04:38:58;;;;;;;0.00;0.00;;;3.40;99.90;;;;;;5092038;28;20184;-60
2023/04/15 04:41:23;;;;;;;0.00;0.00;;;3.40;99.90;;;;;;5091761;28;20172;-61
2023/04/15 04:43:49;;;;;;;0.00;0.00;;;3.40;99.90;;;;;;5091952;28;20359;-62
2023/04/15 04:46:14;;;;;;;0.00;0.00;;;3.40;99.90;;;;;;5073613;28;20172;-60
2023/04/15 04:48:40;;;;;;;0.00;0.00;;;3.30;99.90;;;;;;5091417;28;20612;-60
2023/04/15 04:51:06;;;;;;;0.10;0.10;;;3.30;99.90;;;;;;5091807;28;20639;-60
2023/04/15 04:53:32;;;;;;;0.47;0.47;;;3.30;99.90;;;;;;5091560;28;20160;-59
2023/04/15 04:55:58;;;;;;;0.00;0.00;;;3.40;99.90;;;;;;5091595;28;20524;-59
2023/04/15 04:58:23;;;;;;;0.00;0.00;;;3.30;99.90;;;;;;5091218;28;20175;-60
2023/04/15 05:00:49;;;;;;;0.00;0.00;;;3.30;99.90;;;;;;5091352;28;20536;-59
2023/04/15 05:03:14;;;;;;;0.00;0.00;;;3.30;99.90;;;;;;5091332;28;20191;-60
2023/04/15 05:05:40;;;;;;;0.00;0.00;;;3.30;99.90;;;;;;5091386;28;20528;-60
2023/04/15 05:08:06;;;;;;;0.00;0.00;;;3.30;99.90;;;;;;5090712;28;20261;-60
2023/04/15 05:10:32;;;;;;;0.00;0.00;;;3.40;99.90;;;;;;5091057;28;20180;-60
2023/04/15 05:12:57;;;;;;;0.00;0.00;;;3.40;99.90;;;;;;5091049;28;20184;-60
2023/04/15 05:15:23;;;;;;;0.80;0.55;;;3.40;99.90;;;;;;5091033;28;20172;-61
2023/04/15 05:17:49;;;;;;;0.00;0.00;;;3.50;99.90;;;;;;5090664;28;20181;-59
2023/04/15 05:20:14;;;;;;;0.00;0.00;;;3.50;99.90;;;;;;5079638;28;20325;-59
2023/04/15 05:22:40;;;;;;;0.00;0.00;;;3.60;99.90;;;;;;5090671;28;20180;-59
2023/04/15 05:25:06;;;;;;;0.00;0.00;;;3.60;99.90;;;;;;5091216;28;20198;-59
2023/04/15 05:27:31;;;;;;;0.00;0.00;;;3.70;99.90;;;;;;5090789;28;20306;-60
2023/04/15 05:29:57;;;;;;;0.00;0.00;;;3.80;99.90;;;;;;5074402;28;20223;-59
2023/04/15 05:32:22;;;;;;;0.08;0.08;;;3.80;99.90;;;;;;5089621;28;20233;-60
2023/04/15 05:34:48;;;;;;;0.00;0.00;;;3.90;99.90;;;;;;5090860;28;20180;-57
2023/04/15 05:37:13;;;;;;;0.00;0.00;;;4.00;99.90;;;;;;5090706;28;20182;-58
2023/04/15 05:39:39;;;;;;;0.00;0.00;;;4.10;99.90;;;;;;5090613;28;20689;-61
2023/04/15 05:42:05;;;;;;;0.00;0.00;;;4.20;99.90;;;;;;5090456;28;20534;-57
2023/04/15 05:44:30;;;;;;;0.00;0.00;;;4.30;99.90;;;;;;5090656;28;20686;-59
2023/04/15 05:46:56;;;;;;;0.00;0.00;;;4.50;99.90;;;;;;5090577;28;20553;-60
2023/04/15 05:49:22;;;;;;;0.00;0.00;;;4.70;99.90;;;;;;5090838;28;20709;-60
2023/04/15 05:51:48;;;;;;;0.00;0.00;;;4.90;99.90;;;;;;5090040;28;20258;-58
2023/04/15 05:54:13;;;;;;;0.00;0.00;;;5.10;99.90;;;;;;5090769;28;20176;-59
2023/04/15 05:56:39;;;;;;;0.00;0.00;;;5.40;99.90;;;;;;5090354;28;20176;-60
2023/04/15 05:59:05;;;;;;;0.00;0.00;;;5.60;99.90;;;;;;5090494;28;20196;-60
2023/04/15 06:01:31;;;;;;;0.00;0.00;;;5.90;99.90;;;;;;5090056;28;20175;-58
2023/04/15 06:03:57;;;;;;;0.00;0.00;;;6.30;99.90;;;;;;5090222;28;20179;-58
2023/04/15 06:06:23;;;;;;;0.00;0.00;;;6.70;99.90;;;;;;5089697;28;20160;-58
2023/04/15 06:08:48;;;;;;;0.00;0.00;;;7.10;99.90;;;;;;5090029;28;20207;-58
2023/04/15 06:11:14;;;;;;;0.00;0.00;;;7.30;99.90;;;;;;5090525;28;20184;-59
2023/04/15 06:13:40;;;;;;;0.00;0.00;;;7.50;99.90;;;;;;5090113;28;20183;-58
2023/04/15 06:16:06;;;;;;;0.00;0.00;;;7.80;99.90;;;;;;5090231;28;20254;-58
2023/04/15 06:18:32;;;;;;;0.00;0.00;;;8.10;99.90;;;;;;5089999;28;20184;-58
2023/04/15 06:20:57;;;;;;;0.00;0.00;;;8.50;99.90;;;;;;5090048;28;20255;-59
2023/04/15 06:23:23;;;;;;;0.00;0.00;;;8.90;99.90;;;;;;5090688;28;20180;-58
2023/04/15 06:25:48;;;;;;;0.00;0.00;;;9.40;99.90;;;;;;5090317;28;20646;-58
2023/04/15 06:28:14;;;;;;;0.03;0.03;;;9.80;99.90;;;;;;5088272;28;20220;-59
2023/04/15 06:30:40;;;;;;;0.00;0.00;;;10.30;99.90;;;;;;5060187;28;20179;-58
2023/04/15 06:33:06;;;;;;;0.00;0.00;;;10.60;99.90;;;;;;5090742;28;20583;-59
2023/04/15 06:35:31;;;;;;;0.00;0.00;;;10.90;99.70;;;;;;5090396;28;20182;-59
2023/04/15 06:37:57;;;;;;;0.00;0.00;;;11.20;99.70;;;;;;5089975;28;20580;-59
2023/04/15 06:40:22;;;;;;;0.00;0.00;;;11.70;99.20;;;;;;5090318;28;20680;-58
2023/04/15 06:42:48;;;;;;;0.00;0.00;;;12.20;98.00;;;;;;5091056;28;20176;-59
2023/04/15 06:45:14;;;;;;;0.00;0.00;;;12.80;96.80;;;;;;5094456;28;20187;-59
2023/04/15 06:47:40;;;;;;;0.00;0.00;;;13.20;95.90;;;;;;5094196;28;20601;-59
2023/04/15 06:50:06;;;;;;;0.00;0.00;;;13.50;94.80;;;;;;5094225;28;20187;-60
2023/04/15 06:52:32;;;;;;;0.00;0.00;;;13.90;94.40;;;;;;5094512;28;20714;-60
2023/04/15 06:54:58;;;;;;;0.00;0.00;;;14.20;93.20;;;;;;5094764;28;20199;-58
2023/04/15 06:57:24;;;;;;;0.00;0.00;;;14.40;92.10;;;;;;5093604;28;20187;-58
2023/04/15 06:59:51;;;;;;;0.00;0.00;;;14.50;91.30;;;;;;5093071;28;20223;-58
2023/04/15 07:02:17;;;;;;;0.00;0.00;;;14.90;91.10;;;;;;5093271;28;20630;-58
2023/04/15 07:04:42;;;;;;;0.00;0.00;;;15.50;87.80;;;;;;5094282;28;20180;-59
2023/04/15 07:07:08;;;;;;;0.00;0.00;;;16.00;85.10;;;;;;5094521;28;20184;-58
2023/04/15 07:09:33;;;;;;;0.00;0.00;;;16.40;83.20;;;;;;5094513;28;20678;-58
2023/04/15 07:11:59;;;;;;;0.00;0.00;;;16.60;80.90;;;;;;5094293;28;20187;-59
2023/04/15 07:14:24;;;;;;;0.00;0.00;;;17.00;78.70;;;;;;5093838;28;20542;-59
2023/04/15 07:16:50;;;;;;;0.00;0.00;;;17.60;76.50;;;;;;5094688;28;20266;-59
2023/04/15 07:19:16;;;;;;;0.17;0.13;;;18.10;74.40;;;;;;5093954;28;20528;-59
2023/04/15 07:21:41;;;;;;;0.00;0.00;;;18.60;70.70;;;;;;5094338;28;20250;-59
2023/04/15 07:24:09;;;;;;;0.00;0.00;;;19.10;69.60;;;;;;5094171;28;20191;-58
2023/04/15 07:26:34;;;;;;;0.00;0.00;;;19.70;66.10;;;;;;5093534;28;20301;-58
2023/04/15 07:29:00;;;;;;;0.00;0.00;;;19.90;64.10;;;;;;5090122;28;20312;-58
2023/04/15 07:31:26;;;;;;;0.10;0.10;;;20.40;62.80;;;;;;5094294;28;20187;-58
2023/04/15 07:33:52;;;;;;;0.63;0.22;;;20.90;59.90;;;;;;5093728;28;20233;-58
2023/04/15 07:36:18;;;;;;;0.00;0.00;;;21.30;58.00;;;;;;5093531;28;20186;-58
2023/04/15 07:38:43;;;;;;;0.00;0.00;;;21.30;57.00;;;;;;5093272;28;20647;-58
2023/04/15 07:41:09;;;;;;;0.00;0.00;;;21.20;57.10;;;;;;5094061;28;20182;-58
2023/04/15 07:43:35;;;;;;;0.00;0.00;;;21.10;55.80;;;;;;5093687;28;20243;-58
2023/04/15 07:46:00;;;;;;;0.00;0.00;;;20.40;55.80;;;;;;5093916;28;20180;-58
2023/04/15 07:48:26;;;;;;;0.00;0.00;;;19.80;56.80;;;;;;5093525;28;20298;-58
2023/04/15 07:50:51;;;;;;;0.00;0.00;;;19.10;57.50;;;;;;5093357;28;20180;-58
2023/04/15 07:53:17;;;;;;;0.63;0.38;;;18.50;58.80;;;;;;5093405;28;20180;-59
2023/04/15 07:55:42;;;;;;;0.08;0.08;;;18.00;60.00;;;;;;5092588;28;20180;-58
2023/04/15 07:58:08;;;;;;;0.22;0.22;;;17.60;61.20;;;;;;5093586;28;20214;-58
2023/04/15 08:00:33;;;;;;;0.00;0.00;;;17.30;63.10;;;;;;5093251;28;20657;-58
2023/04/15 08:02:59;;;;;;;0.00;0.00;;;17.00;63.00;;;;;;5092911;28;20298;-58
2023/04/15 08:05:24;;;;;;;0.00;0.00;;;16.80;64.30;;;;;;5093092;28;20195;-58
2023/04/15 08:07:50;;;;;;;0.00;0.00;;;16.60;65.10;;;;;;5092820;28;20204;-58
2023/04/15 08:10:16;;;;;;;0.00;0.00;;;16.80;66.50;;;;;;5093592;28;20188;-58
2023/04/15 08:12:41;;;;;;;0.00;0.00;;;17.30;66.80;;;;;;5092955;28;20199;-58
2023/04/15 08:15:08;;;;;;;0.00;0.00;;;18.10;67.30;;;;;;5093645;28;20180;-58
2023/04/15 08:17:33;;;;;;;0.00;0.00;;;18.90;66.60;;;;;;5093362;28;20253;-58
2023/04/15 08:19:59;;;;;;;0.00;0.00;;;19.70;64.10;;;;;;5093143;28;20176;-58
2023/04/15 08:22:24;;;;;;;0.00;0.00;;;20.30;60.90;;;;;;5093033;28;20234;-58
2023/04/15 08:24:50;;;;;;;0.00;0.00;;;20.50;59.70;;;;;;5093183;28;20674;-58
2023/04/15 08:27:16;;;;;;;0.00;0.00;;;20.70;60.70;;;;;;5092769;28;20303;-58
2023/04/15 08:29:41;;;;;;;0.00;0.00;;;21.10;59.20;;;;;;5092264;28;20298;-58
2023/04/15 08:32:08;;;;;;;0.00;0.00;;;21.30;58.30;;;;;;5092285;28;20311;-58
2023/04/15 08:34:34;;;;;;;0.00;0.00;;;20.90;57.50;;;;;;5093018;28;20541;-59
2023/04/15 08:36:59;;;;;;;0.00;0.00;;;20.80;58.40;;;;;;5092686;28;20267;-59
2023/04/15 08:39:26;;;;;;;0.00;0.00;;;20.80;59.30;;;;;;5092642;28;20220;-59
2023/04/15 08:42:00;;;;;;;0.00;0.00;;;20.90;59.90;;;;;;5092037;28;20306;-59
2023/04/15 08:44:29;;;;;;;0.00;0.00;;;20.50;59.40;;;;;;5092310;28;20533;-59
2023/04/15 08:46:55;;;;;;;0.00;0.00;;;20.50;60.00;;;;;;5074277;28;20188;-59
2023/04/15 08:49:26;;;;;;;0.00;0.00;;;20.60;60.00;;;;;;5092651;28;20212;-59
2023/04/15 08:51:52;;;;;;;0.00;0.00;;;20.70;61.10;;;;;;5092247;28;20187;-59
2023/04/15 08:54:18;;;;;;;0.00;0.00;;;20.50;59.80;;;;;;5092506;28;20172;-59
2023/04/15 08:56:44;;;;;;;0.00;0.00;;;20.50;61.20;;;;;;5092355;28;20180;-59
2023/04/15 08:59:10;;;;;;;0.00;0.00;;;20.50;62.20;;;;;;5092496;28;20188;-59
2023/04/15 09:01:37;;;;;;;0.00;0.00;;;20.60;61.90;;;;;;5092199;28;20180;-59
2023/04/15 09:04:06;;;;;;;0.00;0.00;;;20.30;60.30;;;;;;5091988;28;20267;-59
2023/04/15 09:06:32;;;;;;;0.00;0.00;;;20.40;59.40;;;;;;5090835;28;20192;-59
2023/04/15 09:08:58;;;;;;;0.00;0.00;;;20.00;61.70;;;;;;5091748;28;20207;-59
2023/04/15 09:11:23;;;;;;;0.00;0.00;;;19.80;61.90;;;;;;5092308;28;20263;-59
2023/04/15 09:13:49;;;;;;;0.00;0.00;;;20.00;62.80;;;;;;5091802;28;20643;-59
2023/04/15 09:16:14;;;;;;;0.10;0.10;;;20.60;60.00;;;;;;5092089;28;20763;-59
2023/04/15 09:18:40;;;;;;;0.00;0.00;;;20.60;59.70;;;;;;5091870;28;20180;-59
2023/04/15 09:21:09;;;;;;;0.00;0.00;;;21.10;57.70;;;;;;5092209;28;20180;-59
2023/04/15 09:23:37;;;;;;;0.00;0.00;;;21.30;56.40;;;;;;5091833;28;20214;-59
2023/04/15 09:26:03;;;;;;;0.10;0.10;;;21.50;56.60;;;;;;5091710;28;20176;-58
2023/04/15 09:28:30;;;;;;;0.00;0.00;;;21.60;55.80;;;;;;5087217;28;20232;-58
2023/04/15 09:31:00;;;;;;;0.00;0.00;;;21.50;55.30;;;;;;5091589;28;20267;-58
2023/04/15 09:33:27;;;;;;;0.00;0.00;;;21.50;54.40;;;;;;5091709;28;20263;-58
2023/04/15 09:36:03;;;;;;;0.00;0.00;;;21.50;55.10;;;;;;5091494;28;20532;-59
2023/04/15 09:38:30;;;;;;;0.00;0.00;;;21.50;54.90;;;;;;5087605;28;20566;-59
2023/04/15 09:40:57;;;;;;;0.00;0.00;;;21.40;54.80;;;;;;5091161;28;20275;-59
2023/04/15 09:43:36;;;;;;;0.00;0.00;;;21.30;55.00;;;;;;5091609;28;20176;-59
2023/04/15 09:46:01;;;;;;;0.13;0.13;;;20.90;55.60;;;;;;5091522;28;20187;-59
2023/04/15 09:48:27;;;;;;;0.00;0.00;;;20.30;56.00;;;;;;5091541;28;20220;-59
2023/04/15 09:50:57;;;;;;;0.00;0.00;;;20.00;56.10;;;;;;5091077;28;20186;-59
2023/04/15 09:53:24;;;;;;;0.00;0.00;;;19.70;56.40;;;;;;5083976;28;20313;-59
2023/04/15 09:55:55;;;;;;;0.10;0.10;;;19.60;56.70;;;;;;5090815;28;20180;-59
2023/04/15 09:58:28;;;;;;;0.03;0.03;;;19.60;56.30;;;;;;5091071;28;20191;-59
2023/04/15 10:00:55;;;;;;;0.00;0.00;;;19.40;56.80;;;;;;5091030;28;20642;-59
2023/04/15 10:03:28;;;;;;;0.00;0.00;;;19.30;55.90;;;;;;5091010;28;20537;-59
2023/04/15 10:05:56;;;;;;;0.00;0.00;;;19.30;57.10;;;;;;5091366;28;20370;-59
2023/04/15 10:08:23;;;;;;;0.00;0.00;;;19.20;56.70;;;;;;5091368;28;20261;-60
2023/04/15 10:10:51;;;;;;;0.00;0.00;;;19.40;56.70;;;;;;5091243;28;20187;-59
2023/04/15 10:13:27;;;;;;;0.00;0.00;;;19.40;56.70;;;;;;5091217;28;20270;-59
2023/04/15 10:16:28;;;;;;;0.00;0.00;;;19.60;56.70;;;;;;5090395;28;20322;-59
2023/04/15 10:18:56;;;;;;;0.00;0.00;;;19.90;55.00;;;;;;5027421;28;20204;-59
2023/04/15 10:21:22;;;;;;;0.00;0.00;;;20.00;56.60;;;;;;5087029;28;20184;-59
2023/04/15 10:23:48;;;;;;;0.00;0.00;;;20.00;55.90;;;;;;5090430;28;20200;-59
2023/04/15 10:26:16;;;;;;;0.00;0.00;;;19.90;55.10;;;;;;5090821;28;20675;-59
2023/04/15 10:28:41;;;;;;;0.00;0.00;;;20.20;54.40;;;;;;5087880;28;20625;-59
2023/04/15 10:31:10;;;;;;;0.00;0.00;;;20.50;54.40;;;;;;5084460;28;20184;-59
2023/04/15 10:33:37;;;;;;;0.00;0.00;;;20.60;53.80;;;;;;5090731;28;20180;-59
2023/04/15 10:36:03;;;;;;;0.00;0.00;;;20.50;54.20;;;;;;5090947;28;20195;-59
2023/04/15 10:38:41;;;;;;;0.00;0.00;;;20.40;55.20;;;;;;5090785;28;20263;-57
2023/04/15 10:41:28;;;;;;;0.20;0.20;;;20.60;55.30;;;;;;5090797;28;20198;-57
2023/04/15 10:44:04;;;;;;;0.00;0.00;;;20.70;53.40;;;;;;5090566;28;20187;-57
2023/04/15 10:46:41;;;;;;;0.00;0.00;;;20.60;52.50;;;;;;5090903;28;20225;-57
2023/04/15 10:49:23;;;;;;;0.00;0.00;;;20.60;52.50;;;;;;5090743;28;20596;-57
2023/04/15 10:51:56;;;;;;;0.10;0.10;;;20.50;52.50;;;;;;5090977;28;20176;-57
2023/04/15 10:54:24;;;;;;;0.00;0.00;;;20.50;52.90;;;;;;5079512;28;20181;-57
2023/04/15 10:57:05;;;;;;;0.00;0.00;;;20.40;52.90;;;;;;5090763;28;20172;-58
2023/04/15 10:59:31;;;;;;;0.00;0.00;;;20.30;53.60;;;;;;5090749;28;20255;-58
2023/04/15 11:02:00;;;;;;;0.00;0.00;;;20.10;53.60;;;;;;5090728;28;20321;-58
2023/04/15 11:04:52;;;;;;;0.00;0.00;;;19.90;54.50;;;;;;5078862;28;20184;-58
2023/04/15 11:07:48;;;;;;;0.00;0.00;;;20.20;55.00;;;;;;5077502;28;20188;-58
2023/04/15 11:10:16;;;;;;;0.00;0.00;;;20.50;53.40;;;;;;5090290;28;20196;-58
2023/04/15 11:12:44;;;;;;;0.00;0.00;;;20.70;52.30;;;;;;5076322;28;20183;-58
2023/04/15 11:15:29;;;;;;;0.00;0.00;;;20.70;51.90;;;;;;5090264;28;20217;-58
2023/04/15 11:18:12;;;;;;;0.13;0.05;;;21.00;50.80;;;;;;5090882;28;20180;-59
2023/04/15 11:20:40;;;;;;;0.00;0.00;;;21.40;50.80;;;;;;5090393;28;20168;-58
2023/04/15 11:23:07;;;;;;;0.00;0.00;;;21.50;50.00;;;;;;5090851;28;20584;-58
2023/04/15 11:25:34;;;;;;;0.00;0.00;;;21.30;51.80;;;;;;5090314;28;20644;-58
2023/04/15 11:28:01;;;;;;;0.00;0.00;;;21.50;50.20;;;;;;5089559;28;20228;-59
2023/04/15 11:30:29;;;;;;;0.00;0.00;;;21.50;49.90;;;;;;5081081;28;20188;-58
2023/04/15 11:32:58;;;;;;;0.00;0.00;;;21.50;50.40;;;;;;5094130;28;20184;-58
2023/04/15 11:35:23;;;;;;;0.35;0.28;;;21.20;50.50;;;;;;5093275;28;20187;-58
2023/04/15 11:37:50;;;;;;;0.00;0.00;;;21.20;51.10;;;;;;5093421;28;20216;-58
2023/04/15 11:40:21;;;;;;;0.00;0.00;;;21.20;51.30;;;;;;5093531;28;20184;-58
2023/04/15 11:42:46;;;;;;;0.00;0.00;;;21.30;51.50;;;;;;5073711;28;20601;-58
2023/04/15 11:45:14;;;;;;;0.00;0.00;;;21.20;50.60;;;;;;5093545;28;20208;-58
2023/04/15 11:47:41;;;;;;;0.00;0.00;;;20.60;50.10;;;;;;5093106;28;20200;-58
2023/04/15 11:50:20;;;;;;;0.00;0.00;;;20.30;50.40;;;;;;5093822;28;20184;-58
2023/04/15 11:52:57;;;;;;;0.00;0.00;;;20.00;50.90;;;;;;5092740;28;20757;-60
2023/04/15 11:55:23;;;;;;;0.00;0.00;;;19.70;51.70;;;;;;5084320;28;20179;-58
2023/04/15 11:58:10;;;;;;;0.00;0.00;;;19.50;53.70;;;;;;5092339;28;20673;-58
2023/04/15 12:00:36;;;;;;;0.00;0.00;;;19.30;54.70;;;;;;5092264;28;20200;-59
2023/04/15 12:03:12;;;;;;;0.00;0.00;;;19.10;55.40;;;;;;5093951;28;20180;-58
2023/04/15 12:06:11;;;;;;;0.00;0.00;;;19.00;55.10;;;;;;5093002;28;20183;-58
2023/04/15 12:09:00;;;;;;;0.00;0.00;;;18.80;52.60;;;;;;5086661;28;20619;-58
2023/04/15 12:11:28;;;;;;;0.00;0.00;;;18.70;52.00;;;;;;5086927;28;20198;-57
2023/04/15 12:14:01;;;;;;;0.00;0.00;;;18.50;51.30;;;;;;5092087;28;20180;-57
2023/04/15 12:16:27;;;;;;;0.00;0.00;;;18.40;51.00;;;;;;5091950;28;20172;-58
2023/04/15 12:18:55;;;;;;;0.00;0.00;;;18.20;50.80;;;;;;5087666;28;20259;-57
2023/04/15 12:21:25;;;;;;;0.00;0.00;;;17.80;50.40;;;;;;5090635;28;20198;-58
2023/04/15 12:23:53;;;;;;;0.00;0.00;;;17.60;50.80;;;;;;5092278;28;20180;-58
2023/04/15 12:26:27;;;;;;;0.00;0.00;;;17.40;50.60;;;;;;5091558;28;20187;-57
2023/04/15 12:29:00;;;;;;;0.00;0.00;;;17.10;50.90;;;;;;5087735;28;20212;-58
2023/04/15 12:31:26;;;;;;;0.00;0.00;;;16.70;50.90;;;;;;5076694;28;20183;-58
2023/04/15 12:33:54;;;;;;;0.00;0.00;;;16.30;52.10;;;;;;5091274;28;20785;-58
2023/04/15 12:36:20;;;;;;;0.00;0.00;;;16.30;52.70;;;;;;5091135;28;20196;-58
2023/04/15 12:38:45;;;;;;;0.00;0.00;;;16.20;52.40;;;;;;5092411;28;20226;-58
2023/04/15 12:41:11;;;;;;;0.00;0.00;;;16.00;52.30;;;;;;5091542;28;20177;-58
2023/04/15 12:43:36;;;;;;;0.00;0.00;;;15.80;52.10;;;;;;5091781;28;20270;-58
2023/04/15 12:46:02;;;;;;;0.00;0.00;;;15.70;51.90;;;;;;5092121;28;20183;-59
2023/04/15 12:48:27;;;;;;;0.00;0.00;;;15.70;52.90;;;;;;5091572;28;20200;-59
2023/04/15 12:50:53;;;;;;;0.00;0.00;;;15.80;54.50;;;;;;5090539;28;20522;-59
2023/04/15 12:53:19;;;;;;;0.00;0.00;;;15.70;55.10;;;;;;5090399;28;20239;-60